createdAt,value
2023-03-06T00:01:36.838Z,14.98
2023-03-06T00:04:40.639Z,16.55
2023-03-06T00:07:49.732Z,13.07
2023-03-06T00:10:58.488Z,15.93
2023-03-06T00:14:12.512Z,14.55
2023-03-06T00:17:28.057Z,15.38
2023-03-06T00:20:31.649Z,15.10
2023-03-06T00:23:36.906Z,15.80
2023-03-06T00:26:42.252Z,16.40
2023-03-06T00:30:01.600Z,15.98
2023-03-06T00:33:07.632Z,15.15
2023-03-06T00:36:13.867Z,16.88
2023-03-06T00:39:24.056Z,15.68
2023-03-06T00:42:37.639Z,15.40
2023-03-06T00:45:47.078Z,15.18
2023-03-06T00:48:57.355Z,17.73
2023-03-06T00:52:03.078Z,17.48
2023-03-06T00:55:07.437Z,17.98
2023-03-06T00:58:11.400Z,15.30
2023-03-06T01:01:15.330Z,17.83
2023-03-06T01:04:26.112Z,16.48
2023-03-06T01:07:30.255Z,18.17
2023-03-06T01:10:38.149Z,17.60
2023-03-06T01:13:42.825Z,16.33
2023-03-06T01:16:47.701Z,18.25
2023-03-06T01:19:59.897Z,17.35
2023-03-06T01:23:03.902Z,20.52
2023-03-06T01:26:09.263Z,22.00
2023-03-06T01:29:14.599Z,19.80
2023-03-06T01:32:24.657Z,22.98
2023-03-06T01:35:32.718Z,23.10
2023-03-06T01:38:36.858Z,22.15
2023-03-06T01:41:40.539Z,20.75
2023-03-06T01:45:03.911Z,20.83
2023-03-06T01:48:12.744Z,22.73
2023-03-06T01:51:16.924Z,22.23
2023-03-06T01:54:27.657Z,22.70
2023-03-06T01:57:47.577Z,26.27
2023-03-06T02:00:56.752Z,29.73
2023-03-06T02:04:01.367Z,25.73
2023-03-06T02:07:07.123Z,24.45
2023-03-06T02:10:20.881Z,23.63
2023-03-06T02:13:31.224Z,25.25
2023-03-06T02:16:37.413Z,25.45
2023-03-06T02:20:03.737Z,27.65
2023-03-06T02:23:07.369Z,29.48
2023-03-06T02:26:12.753Z,31.35
2023-03-06T02:29:22.947Z,26.27
2023-03-06T02:32:27.332Z,23.00
2023-03-06T02:35:58.255Z,20.80
2023-03-06T02:39:02.414Z,23.08
2023-03-06T02:42:06.656Z,20.38
2023-03-06T02:45:13.552Z,17.75
2023-03-06T02:48:19.552Z,22.13
2023-03-06T02:51:25.128Z,24.63
2023-03-06T02:54:38.880Z,25.20
2023-03-06T02:57:43.559Z,24.60
2023-03-06T03:00:52.634Z,25.35
2023-03-06T03:04:12.404Z,46.15
2023-03-06T03:07:16.955Z,64.03
2023-03-06T03:10:23.506Z,55.85
2023-03-06T03:13:27.661Z,50.90
2023-03-06T03:16:39.375Z,51.40
2023-03-06T03:19:43.205Z,27.98
2023-03-06T03:22:50.694Z,26.85
2023-03-06T03:25:55.266Z,23.42
2023-03-06T03:29:01.099Z,23.50
2023-03-06T03:32:06.667Z,23.13
2023-03-06T03:35:11.944Z,25.35
2023-03-06T03:38:21.265Z,20.20
2023-03-06T03:41:35.499Z,23.85
2023-03-06T03:44:50.460Z,22.25
2023-03-06T03:47:58.875Z,24.38
2023-03-06T03:51:15.275Z,24.25
2023-03-06T03:54:33.267Z,22.40
2023-03-06T03:57:37.890Z,23.58
2023-03-06T04:00:47.895Z,19.85
2023-03-06T04:03:52.148Z,22.67
2023-03-06T04:07:05.663Z,24.40
2023-03-06T04:10:14.359Z,32.78
2023-03-06T04:13:28.667Z,23.33
2023-03-06T04:16:35.284Z,27.95
2023-03-06T04:19:43.057Z,57.60
2023-03-06T04:22:46.467Z,30.30
2023-03-06T04:26:03.455Z,28.98
2023-03-06T04:29:17.440Z,19.17
2023-03-06T04:32:25.003Z,22.73
2023-03-06T04:35:32.834Z,31.30
2023-03-06T04:38:43.010Z,98.78
2023-03-06T04:41:52.081Z,54.42
2023-03-06T04:45:02.551Z,60.22
2023-03-06T04:48:06.527Z,40.63
2023-03-06T04:51:19.866Z,42.13
2023-03-06T04:54:23.536Z,47.05
2023-03-06T04:57:27.490Z,36.92
2023-03-06T05:00:31.974Z,35.65
2023-03-06T05:03:35.904Z,33.75
2023-03-06T05:06:44.908Z,34.65
2023-03-06T05:09:58.485Z,27.65
2023-03-06T05:13:12.038Z,23.52
2023-03-06T05:16:15.397Z,30.73
2023-03-06T05:19:19.971Z,23.10
2023-03-06T05:22:34.676Z,24.75
2023-03-06T05:25:41.741Z,27.27
2023-03-06T05:28:45.692Z,24.48
2023-03-06T05:31:49.406Z,29.60
2023-03-06T05:34:53.225Z,24.90
2023-03-06T05:37:57.112Z,26.27
2023-03-06T05:41:04.267Z,24.65
2023-03-06T05:44:11.545Z,26.38
2023-03-06T05:47:15.067Z,25.17
2023-03-06T05:50:18.745Z,21.66
2023-03-06T05:53:22.775Z,21.65
2023-03-06T05:56:26.406Z,23.33
2023-03-06T05:59:30.119Z,25.17
2023-03-06T06:02:34.026Z,21.60
2023-03-06T06:05:39.977Z,21.42
2023-03-06T06:08:43.815Z,22.98
2023-03-06T06:11:57.719Z,19.02
2023-03-06T06:15:01.490Z,20.75
2023-03-06T06:18:11.714Z,25.58
2023-03-06T06:21:15.512Z,20.85
2023-03-06T06:24:29.080Z,23.52
2023-03-06T06:27:42.998Z,27.17
2023-03-06T06:30:46.366Z,25.02
2023-03-06T06:33:49.698Z,25.80
2023-03-06T06:37:03.437Z,24.40
2023-03-06T06:40:07.550Z,27.10
2023-03-06T06:43:11.259Z,26.67
2023-03-06T06:46:59.025Z,30.45
2023-03-06T06:49:42.520Z,31.75
2023-03-06T06:52:46.174Z,33.83
2023-03-06T06:55:55.021Z,23.30
2023-03-06T06:59:16.206Z,20.20
2023-03-06T07:02:32.706Z,25.63
2023-03-06T07:05:36.316Z,21.45
2023-03-06T07:08:40.047Z,21.48
2023-03-06T07:11:43.770Z,22.27
2023-03-06T07:14:47.368Z,21.90
2023-03-06T07:17:50.973Z,25.17
2023-03-06T07:24:05.354Z,18.95
2023-03-06T07:27:09.418Z,21.58
2023-03-06T07:30:25.331Z,22.02
2023-03-06T07:33:29.033Z,21.25
2023-03-06T07:36:32.999Z,25.20
2023-03-06T07:39:36.945Z,21.92
2023-03-06T07:42:40.628Z,25.60
2023-03-06T07:45:47.988Z,19.55
2023-03-06T07:48:55.527Z,21.30
2023-03-06T07:51:59.871Z,20.80
2023-03-06T07:55:04.300Z,24.90
2023-03-06T07:58:09.823Z,20.77
2023-03-06T08:01:20.121Z,19.73
2023-03-06T08:04:30.063Z,23.83
2023-03-06T08:07:34.099Z,19.35
2023-03-06T08:10:37.752Z,22.15
2023-03-06T08:13:42.058Z,22.05
2023-03-06T08:16:51.688Z,20.95
2023-03-06T08:19:55.685Z,19.65
2023-03-06T08:22:59.346Z,19.25
2023-03-06T08:26:09.700Z,18.55
2023-03-06T08:29:13.845Z,21.17
2023-03-06T08:32:28.058Z,20.20
2023-03-06T08:35:37.353Z,18.65
2023-03-06T08:38:42.109Z,17.10
2023-03-06T08:41:46.639Z,18.40
2023-03-06T08:44:51.018Z,18.67
2023-03-06T08:47:54.415Z,17.48
2023-03-06T08:50:58.002Z,17.80
2023-03-06T08:54:02.574Z,19.77
2023-03-06T08:57:07.208Z,18.60
2023-03-06T09:00:11.699Z,20.98
2023-03-06T09:03:15.493Z,16.00
2023-03-06T09:06:19.039Z,18.17
2023-03-06T09:09:22.388Z,17.75
2023-03-06T09:12:40.401Z,17.85
2023-03-06T09:15:51.565Z,14.98
2023-03-06T09:18:58.905Z,16.20
2023-03-06T09:22:02.888Z,14.48
2023-03-06T09:25:06.946Z,16.38
2023-03-06T09:28:11.949Z,15.55
2023-03-06T09:31:17.591Z,15.45
2023-03-06T09:34:21.088Z,15.52
2023-03-06T09:37:31.922Z,15.68
2023-03-06T09:41:02.206Z,15.18
2023-03-06T09:44:09.084Z,14.93
2023-03-06T09:47:32.177Z,11.50
2023-03-06T09:50:55.649Z,15.07
2023-03-06T09:54:05.662Z,15.57
2023-03-06T09:57:14.983Z,15.65
2023-03-06T10:00:39.545Z,16.00
2023-03-06T10:03:49.551Z,14.13
2023-03-06T10:07:12.859Z,16.33
2023-03-06T10:10:24.703Z,17.15
2023-03-06T10:13:28.336Z,15.30
2023-03-06T10:16:41.851Z,17.85
2023-03-06T10:19:48.072Z,15.98
2023-03-06T10:23:00.675Z,15.63
2023-03-06T10:26:15.806Z,15.25
2023-03-06T10:29:22.304Z,15.20
2023-03-06T10:32:46.309Z,15.15
2023-03-06T10:35:54.359Z,14.18
2023-03-06T10:38:59.039Z,13.68
2023-03-06T10:42:02.799Z,13.32
2023-03-06T10:45:11.319Z,13.73
2023-03-06T10:48:26.545Z,12.50
2023-03-06T10:51:30.940Z,12.13
2023-03-06T10:54:36.681Z,11.73
2023-03-06T10:57:40.276Z,11.57
2023-03-06T11:00:44.075Z,12.05
2023-03-06T11:03:55.689Z,14.00
2023-03-06T11:07:05.926Z,12.55
2023-03-06T11:10:20.011Z,13.40
2023-03-06T11:13:35.674Z,12.85
2023-03-06T11:16:39.482Z,10.50
2023-03-06T11:19:43.270Z,11.40
2023-03-06T11:23:10.732Z,13.00
2023-03-06T11:26:14.807Z,11.18
2023-03-06T11:29:38.666Z,10.30
2023-03-06T11:32:56.429Z,11.90
2023-03-06T11:36:21.524Z,10.65
2023-03-06T11:39:28.796Z,10.38
2023-03-06T11:42:39.688Z,13.02
2023-03-06T11:45:45.622Z,11.50
2023-03-06T11:49:02.323Z,10.10
2023-03-06T11:56:05.683Z,17.98
2023-03-06T11:59:27.131Z,20.45
2023-03-06T12:02:42.818Z,10.95
2023-03-06T12:06:10.951Z,10.80
2023-03-06T12:09:14.708Z,8.85
2023-03-06T12:12:31.564Z,10.02
2023-03-06T12:15:47.044Z,8.98
2023-03-06T12:18:54.327Z,10.52
2023-03-06T12:22:16.714Z,8.70
2023-03-06T12:25:42.890Z,11.05
2023-03-06T12:29:05.067Z,12.68
2023-03-06T12:32:09.376Z,9.48
2023-03-06T12:35:16.677Z,11.85
2023-03-06T12:42:22.639Z,9.80
2023-03-06T12:45:37.582Z,12.68
2023-03-06T12:49:00.485Z,12.73
2023-03-06T12:52:05.656Z,12.05
2023-03-06T12:55:14.616Z,13.38
2023-03-06T12:58:32.967Z,10.43
2023-03-06T13:01:37.116Z,12.23
2023-03-06T13:04:41.282Z,11.93
2023-03-06T13:07:56.019Z,13.57
2023-03-06T13:14:48.635Z,13.03
2023-03-06T13:18:03.078Z,11.52
2023-03-06T13:21:27.696Z,15.52
2023-03-06T13:24:33.011Z,12.27
2023-03-06T13:27:54.026Z,10.35
2023-03-06T13:34:36.284Z,11.90
2023-03-06T13:37:49.286Z,13.13
2023-03-06T13:41:22.304Z,55.58
2023-03-06T13:44:26.051Z,28.77
2023-03-06T13:47:30.439Z,23.35
2023-03-06T13:50:49.093Z,14.60
2023-03-06T13:54:12.934Z,12.18
2023-03-06T13:57:22.877Z,8.75
2023-03-06T14:00:50.565Z,9.77
2023-03-06T14:04:17.741Z,8.40
2023-03-06T14:07:26.229Z,6.88
2023-03-06T14:10:31.514Z,7.30
2023-03-06T14:13:47.331Z,9.15
2023-03-06T14:16:53.967Z,6.70
2023-03-06T14:20:01.418Z,5.72
2023-03-06T14:23:16.905Z,6.10
2023-03-06T14:26:27.113Z,6.75
2023-03-06T14:29:31.195Z,6.03
2023-03-06T14:32:38.575Z,5.93
2023-03-06T14:35:42.504Z,4.30
2023-03-06T14:38:50.520Z,6.75
2023-03-06T14:42:22.735Z,5.55
2023-03-06T14:45:26.959Z,4.83
2023-03-06T14:48:44.604Z,11.35
2023-03-06T14:52:02.380Z,6.70
2023-03-06T14:55:20.882Z,8.85
2023-03-06T14:58:30.698Z,8.52
2023-03-06T15:01:47.564Z,7.30
2023-03-06T15:05:04.866Z,6.07
2023-03-06T15:08:21.565Z,9.30
2023-03-06T15:11:26.323Z,5.72
2023-03-06T15:14:40.820Z,4.15
2023-03-06T15:17:49.128Z,4.45
2023-03-06T15:20:57.366Z,4.57
2023-03-06T15:24:01.799Z,4.50
2023-03-06T15:27:08.325Z,6.93
2023-03-06T15:30:12.880Z,3.85
2023-03-06T15:33:27.332Z,5.22
2023-03-06T15:36:32.682Z,4.28
2023-03-06T15:39:41.789Z,4.20
2023-03-06T15:42:45.495Z,5.15
2023-03-06T15:45:50.310Z,4.63
2023-03-06T15:49:04.718Z,5.65
2023-03-06T15:52:22.955Z,4.88
2023-03-06T15:55:26.814Z,5.10
2023-03-06T15:58:31.872Z,5.47
2023-03-06T16:01:37.232Z,4.68
2023-03-06T16:04:41.508Z,4.40
2023-03-06T16:07:45.074Z,5.00
2023-03-06T16:10:53.302Z,16.92
2023-03-06T16:14:06.385Z,4.00
2023-03-06T16:17:11.691Z,4.32
2023-03-06T16:20:21.622Z,5.20
2023-03-06T16:23:39.254Z,4.80
2023-03-06T16:26:51.330Z,4.57
2023-03-06T16:29:54.808Z,8.48
2023-03-06T16:33:04.796Z,4.95
2023-03-06T16:36:23.171Z,5.57
2023-03-06T16:39:32.044Z,6.20
2023-03-06T16:42:35.964Z,5.18
2023-03-06T16:45:41.200Z,6.38
2023-03-06T16:48:44.667Z,5.07
2023-03-06T16:51:48.639Z,5.68
2023-03-06T16:54:52.188Z,4.72
2023-03-06T16:57:55.742Z,4.83
2023-03-06T17:00:59.222Z,4.57
2023-03-06T17:04:13.185Z,4.10
2023-03-06T17:07:16.641Z,4.38
2023-03-06T17:10:23.158Z,4.45
2023-03-06T17:13:33.029Z,5.03
2023-03-06T17:16:40.626Z,5.32
2023-03-06T17:19:47.711Z,6.07
2023-03-06T17:22:51.100Z,6.68
2023-03-06T17:29:45.375Z,4.60
2023-03-06T17:32:54.161Z,8.07
2023-03-06T17:35:58.767Z,5.65
2023-03-06T17:39:03.313Z,5.07
2023-03-06T17:42:07.730Z,5.53
2023-03-06T17:45:12.143Z,5.38
2023-03-06T17:48:15.882Z,7.27
2023-03-06T17:51:19.272Z,6.88
2023-03-06T17:54:33.783Z,7.47
2023-03-06T17:57:37.136Z,4.67
2023-03-06T18:00:50.492Z,5.72
2023-03-06T18:03:54.215Z,5.00
2023-03-06T18:06:58.780Z,6.55
2023-03-06T18:10:07.904Z,4.90
2023-03-06T18:13:11.755Z,5.65
2023-03-06T18:16:22.108Z,5.20
2023-03-06T18:19:25.498Z,6.38
2023-03-06T18:22:28.884Z,6.03
2023-03-06T18:25:32.822Z,5.40
2023-03-06T18:28:42.966Z,5.35
2023-03-06T18:31:50.300Z,5.72
2023-03-06T18:34:55.621Z,5.22
2023-03-06T18:38:04.014Z,5.27
2023-03-06T18:41:08.943Z,5.47
2023-03-06T18:44:14.061Z,5.95
2023-03-06T18:47:17.918Z,4.88
2023-03-06T18:50:21.634Z,5.57
2023-03-06T18:53:25.414Z,5.55
2023-03-06T18:56:40.273Z,5.30
2023-03-06T18:59:55.636Z,5.35
2023-03-06T19:03:04.318Z,5.43
2023-03-06T19:06:20.757Z,5.95
2023-03-06T19:09:24.554Z,5.57
2023-03-06T19:12:29.075Z,5.57
2023-03-06T19:15:33.358Z,5.60
2023-03-06T19:18:37.331Z,5.15
2023-03-06T19:21:42.725Z,5.65
2023-03-06T19:24:48.546Z,5.63
2023-03-06T19:27:54.249Z,5.30
2023-03-06T19:31:11.141Z,5.95
2023-03-06T19:34:19.716Z,5.20
2023-03-06T19:37:23.181Z,5.57
2023-03-06T19:40:37.222Z,5.78
2023-03-06T19:43:41.278Z,5.82
2023-03-06T19:46:45.124Z,5.75
2023-03-06T19:49:49.233Z,5.78
2023-03-06T19:52:54.617Z,5.75
2023-03-06T19:56:05.416Z,6.10
2023-03-06T19:59:13.981Z,5.13
2023-03-06T20:02:19.962Z,6.05
2023-03-06T20:05:33.902Z,7.25
2023-03-06T20:08:43.124Z,5.75
2023-03-06T20:11:46.659Z,5.60
2023-03-06T20:14:50.083Z,5.43
2023-03-06T20:17:55.849Z,6.15
2023-03-06T20:21:01.286Z,5.28
2023-03-06T20:24:06.343Z,6.00
2023-03-06T20:27:16.972Z,8.57
2023-03-06T20:30:20.509Z,5.72
2023-03-06T20:33:25.933Z,6.28
2023-03-06T20:36:36.594Z,6.95
2023-03-06T20:39:41.334Z,5.97
2023-03-06T20:42:45.050Z,5.95
2023-03-06T20:45:59.469Z,5.70
2023-03-06T20:49:02.991Z,5.96
2023-03-06T20:52:06.358Z,5.30
2023-03-06T20:55:10.432Z,7.90
2023-03-06T20:58:13.818Z,5.72
2023-03-06T21:01:21.666Z,6.15
2023-03-06T21:04:30.615Z,6.05
2023-03-06T21:07:34.232Z,5.80
2023-03-06T21:10:48.291Z,6.30
2023-03-06T21:13:52.828Z,6.55
2023-03-06T21:17:04.236Z,5.80
2023-03-06T21:20:07.893Z,6.43
2023-03-06T21:23:12.399Z,6.25
2023-03-06T21:26:17.871Z,5.55
2023-03-06T21:29:32.342Z,6.35
2023-03-06T21:32:41.156Z,5.80
2023-03-06T21:35:46.026Z,5.60
2023-03-06T21:38:50.969Z,6.60
2023-03-06T21:41:54.597Z,7.28
2023-03-06T21:44:58.474Z,6.03
2023-03-06T21:48:01.912Z,6.10
2023-03-06T21:51:24.168Z,6.00
2023-03-06T21:54:33.144Z,5.95
2023-03-06T21:57:37.073Z,6.30
2023-03-06T22:00:41.155Z,6.57
2023-03-06T22:03:46.014Z,7.30
2023-03-06T22:06:56.872Z,7.07
2023-03-06T22:10:00.511Z,6.57
2023-03-06T22:13:03.942Z,6.45
2023-03-06T22:16:08.081Z,7.47
2023-03-06T22:19:16.753Z,7.03
2023-03-06T22:22:20.871Z,6.88
2023-03-06T22:25:24.263Z,6.75
2023-03-06T22:28:28.076Z,7.15
2023-03-06T22:31:31.817Z,7.55
2023-03-06T22:34:39.050Z,7.35
2023-03-06T22:37:42.670Z,8.00
2023-03-06T22:40:59.328Z,8.25
2023-03-06T22:44:08.278Z,7.55
2023-03-06T22:47:11.734Z,6.22
2023-03-06T22:50:15.350Z,7.35
2023-03-06T22:53:18.914Z,6.78
2023-03-06T22:56:23.844Z,6.65
2023-03-06T22:59:27.269Z,8.82
2023-03-06T23:02:35.605Z,8.25
2023-03-06T23:05:40.990Z,6.95
2023-03-06T23:08:53.023Z,7.65
2023-03-06T23:12:05.930Z,8.17
2023-03-06T23:15:27.843Z,6.93
2023-03-06T23:18:51.309Z,8.48
2023-03-06T23:22:14.724Z,9.05
2023-03-06T23:25:46.605Z,7.90
2023-03-06T23:28:52.168Z,8.35
2023-03-06T23:31:55.804Z,10.40
2023-03-06T23:35:05.613Z,8.15
2023-03-06T23:38:20.273Z,7.90
2023-03-06T23:41:24.444Z,8.67
2023-03-06T23:44:28.257Z,8.30
2023-03-06T23:47:32.949Z,7.43
2023-03-06T23:50:44.153Z,8.13
2023-03-06T23:53:48.598Z,8.93
2023-03-06T23:56:51.976Z,7.18
2023-03-06T23:59:55.808Z,7.35
